Latest Weather Observations for Spitfire Channel

IDQ60801

Issued at 10:22 am EST Thursday 23 January 2020 (issued every 10 minutes, with the page automatically refreshed every 10 minutes)

About weather observations | Map of weather stations | Latest weather observations for QLD | Other Formats
Station Details ID: 040927 Name: SPITFIRE CHANNEL BEACON Lat: -27.05 Lon: 153.27 Height: 7.0 m
Data from the previous 72 hours. | See also: Recent months at Spitfire Channel
Date/Time
EST
Temp
°C
App
Temp
°C
Dew
Point
°C
Rel
Hum
%
Delta-T
°C
Wind Press
QNH
hPa
Press
MSL
hPa
Rain since
9am
mm
Dir  Spd
km/h
Gust
km/h
Spd
kts
Gust
kts
23/10:00am - - - - - N 24 28 13 15 - - -
23/09:30am - - - - - N 22 26 12 14 - - -
23/09:00am - - - - - N 22 24 12 13 - - -
23/08:30am - - - - - N 26 30 14 16 - - -
23/08:00am - - - - - N 26 32 14 17 - - -
23/07:30am - - - - - N 26 30 14 16 - - -
23/07:00am - - - - - N 26 32 14 17 - - -
23/06:30am - - - - - N 28 33 15 18 - - -
23/06:00am - - - - - N 24 30 13 16 - - -
23/05:30am - - - - - N 24 28 13 15 - - -
23/05:00am - - - - - N 30 35 16 19 - - -
23/04:30am - - - - - N 28 33 15 18 - - -
23/04:00am - - - - - N 30 35 16 19 - - -
23/03:30am - - - - - N 32 39 17 21 - - -
23/03:00am - - - - - N 35 43 19 23 - - -
23/02:30am - - - - - N 33 39 18 21 - - -
23/02:00am - - - - - N 35 43 19 23 - - -
23/01:30am - - - - - N 35 43 19 23 - - -
23/01:00am - - - - - N 33 39 18 21 - - -
23/12:30am - - - - - N 33 39 18 21 - - -
23/12:00am - - - - - N 30 37 16 20 - - -
 
Date/Time
EST
Temp
°C
App
Temp
°C
Dew
Point
°C
Rel
Hum
%
Delta-T
°C
Wind Press
QNH
hPa
Press
MSL
hPa
Rain since
9am
mm
Dir  Spd
km/h
Gust
km/h
Spd
kts
Gust
kts
22/11:30pm - - - - - N 28 33 15 18 - - -
22/11:00pm - - - - - N 28 33 15 18 - - -
22/10:30pm - - - - - N 28 32 15 17 - - -
22/10:00pm - - - - - N 26 32 14 17 - - -
22/09:30pm - - - - - N 26 30 14 16 - - -
22/09:00pm - - - - - N 28 33 15 18 - - -
22/08:30pm - - - - - N 28 33 15 18 - - -
22/08:00pm - - - - - N 30 35 16 19 - - -
22/07:30pm - - - - - N 32 37 17 20 - - -
22/07:00pm - - - - - N 33 37 18 20 - - -
22/06:30pm - - - - - N 30 35 16 19 - - -
22/06:00pm - - - - - N 35 43 19 23 - - -
22/05:30pm - - - - - N 35 43 19 23 - - -
22/05:00pm - - - - - N 35 41 19 22 - - -
22/04:30pm - - - - - NNE 35 41 19 22 - - -
22/04:00pm - - - - - NNE 35 41 19 22 - - -
22/03:30pm - - - - - NNE 35 41 19 22 - - -
22/03:00pm - - - - - NNE 32 39 17 21 - - -
22/02:30pm - - - - - NNE 30 33 16 18 - - -
22/02:00pm - - - - - NNE 28 33 15 18 - - -
22/01:30pm - - - - - NNE 28 32 15 17 - - -
22/01:00pm - - - - - NNE 26 30 14 16 - - -
22/12:30pm - - - - - NNE 24 32 13 17 - - -
22/12:00pm - - - - - NNE 24 28 13 15 - - -
22/11:30am - - - - - NNE 22 26 12 14 - - -
22/11:00am - - - - - N 19 22 10 12 - - -
22/10:30am - - - - - N 19 22 10 12 - - -
22/10:00am - - - - - N 20 22 11 12 - - -
22/09:30am - - - - - N 17 19 9 10 - - -
22/09:00am - - - - - N 15 17 8 9 - - -
22/08:30am - - - - - N 17 19 9 10 - - -
22/08:00am - - - - - N 15 19 8 10 - - -
22/07:30am - - - - - NNW 15 17 8 9 - - -
22/07:00am - - - - - NNW 17 20 9 11 - - -
22/06:30am - - - - - N 20 22 11 12 - - -
22/06:00am - - - - - N 20 22 11 12 - - -
22/05:30am - - - - - N 20 22 11 12 - - -
22/05:00am - - - - - N 20 22 11 12 - - -
22/04:30am - - - - - N 20 26 11 14 - - -
22/04:00am - - - - - N 19 22 10 12 - - -
22/03:30am - - - - - N 15 19 8 10 - - -
22/03:00am - - - - - NNW 15 19 8 10 - - -
22/02:30am - - - - - NW 11 17 6 9 - - -
22/02:00am - - - - - WNW 15 17 8 9 - - -
22/01:30am - - - - - NW 7 15 4 8 - - -
22/01:00am - - - - - N 11 15 6 8 - - -
22/12:30am - - - - - NW 9 13 5 7 - - -
22/12:00am - - - - - W 13 17 7 9 - - -
 
Date/Time
EST
Temp
°C
App
Temp
°C
Dew
Point
°C
Rel
Hum
%
Delta-T
°C
Wind Press
QNH
hPa
Press
MSL
hPa
Rain since
9am
mm
Dir  Spd
km/h
Gust
km/h
Spd
kts
Gust
kts
21/11:30pm - - - - - W 15 19 8 10 - - -
21/11:00pm - - - - - WNW 22 32 12 17 - - -
21/10:30pm - - - - - N 28 32 15 17 - - -
21/10:00pm - - - - - NNE 30 35 16 19 - - -
21/09:30pm - - - - - NNE 33 43 18 23 - - -
21/09:00pm - - - - - NNE 33 39 18 21 - - -
21/08:30pm - - - - - NNE 24 32 13 17 - - -
21/08:00pm - - - - - ENE 13 24 7 13 - - -
21/07:30pm - - - - - NE 9 19 5 10 - - -
21/07:00pm - - - - - W 28 37 15 20 - - -
21/06:30pm - - - - - NNW 17 24 9 13 - - -
21/06:00pm - - - - - N 35 43 19 23 - - -
21/05:30pm - - - - - N 22 32 12 17 - - -
21/05:00pm - - - - - W 15 28 8 15 - - -
21/04:30pm - - - - - NNW 24 32 13 17 - - -
21/04:00pm - - - - - N 35 43 19 23 - - -
21/03:30pm - - - - - N 35 43 19 23 - - -
21/03:00pm - - - - - N 39 46 21 25 - - -
21/02:30pm - - - - - NNE 37 44 20 24 - - -
21/02:00pm - - - - - N 39 46 21 25 - - -
21/01:30pm - - - - - N 39 44 21 24 - - -
21/01:00pm - - - - - N 37 44 20 24 - - -
21/12:30pm - - - - - N 33 43 18 23 - - -
21/12:00pm - - - - - N 32 37 17 20 - - -
21/11:30am - - - - - N 32 37 17 20 - - -
21/11:00am - - - - - N 30 35 16 19 - - -
21/10:30am - - - - - N 24 30 13 16 - - -
21/10:00am - - - - - N 22 28 12 15 - - -
21/09:30am - - - - - N 28 35 15 19 - - -
21/09:00am - - - - - N 33 39 18 21 - - -
21/08:30am - - - - - N 32 37 17 20 - - -
21/08:00am - - - - - N 28 35 15 19 - - -
21/07:30am - - - - - N 19 22 10 12 - - -
21/07:00am - - - - - NNW 17 20 9 11 - - -
21/06:30am - - - - - NNW 13 17 7 9 - - -
21/06:00am - - - - - WNW 15 15 8 8 - - -
21/05:30am - - - - - NW 17 20 9 11 - - -
21/05:00am - - - - - NW 20 30 11 16 - - -
21/04:30am - - - - - NNW 24 30 13 16 - - -
21/04:00am - - - - - NNW 28 33 15 18 - - -
21/03:30am - - - - - NNW 32 37 17 20 - - -
21/03:00am - - - - - N 33 39 18 21 - - -
21/02:30am - - - - - N 33 43 18 23 - - -
21/02:00am - - - - - N 37 43 20 23 - - -
21/01:30am - - - - - N 37 44 20 24 - - -
21/01:00am - - - - - N 37 44 20 24 - - -
21/12:30am - - - - - N 37 46 20 25 - - -
21/12:00am - - - - - N 37 46 20 25 - - -
 
Date/Time
EST
Temp
°C
App
Temp
°C
Dew
Point
°C
Rel
Hum
%
Delta-T
°C
Wind Press
QNH
hPa
Press
MSL
hPa
Rain since
9am
mm
Dir  Spd
km/h
Gust
km/h
Spd
kts
Gust
kts
20/11:30pm - - - - - N 33 43 18 23 - - -
20/11:00pm - - - - - N 32 39 17 21 - - -
20/10:30pm - - - - - N 33 39 18 21 - - -
20/10:00pm - - - - - N 33 43 18 23 - - -
20/09:30pm - - - - - N 30 37 16 20 - - -
20/09:00pm - - - - - N 28 33 15 18 - - -
20/08:30pm - - - - - N 26 32 14 17 - - -
20/08:00pm - - - - - N 19 22 10 12 - - -
20/07:30pm - - - - - N 22 24 12 13 - - -
20/07:00pm - - - - - N 30 39 16 21 - - -
20/06:30pm - - - - - N 30 35 16 19 - - -
20/06:00pm - - - - - NW 24 33 13 18 - - -
20/05:32pm - - - - - NNW 39 52 21 28 - - -
20/05:30pm - - - - - N 37 52 20 28 - - -
20/05:00pm - - - - - N 37 44 20 24 - - -
20/04:30pm - - - - - N 39 46 21 25 - - -
20/04:00pm - - - - - N 37 46 20 25 - - -
20/03:30pm - - - - - N 37 44 20 24 - - -
20/03:00pm - - - - - N 35 43 19 23 - - -
20/02:30pm - - - - - N 37 44 20 24 - - -
20/02:00pm - - - - - N 35 43 19 23 - - -
20/01:30pm - - - - - NNE 35 44 19 24 - - -
20/01:00pm - - - - - N 35 41 19 22 - - -
20/12:30pm - - - - - N 33 39 18 21 - - -
20/12:00pm - - - - - N 32 37 17 20 - - -
20/11:30am - - - - - N 33 39 18 21 - - -
20/11:00am - - - - - N 30 35 16 19 - - -
20/10:30am - - - - - N 30 35 16 19 - - -

Other formats

Comma delimited format used in spreadsheet applications
http://www.bom.gov.au/fwo/IDQ60801/IDQ60801.94581.axf

JavaScript Object Notation format (JSON) in row-major order
http://www.bom.gov.au/fwo/IDQ60801/IDQ60801.94581.json

Data quality

Most of these data are generated automatically and are frequently updated. Quality checks on data are not normally performed. It is possible for incorrect values to appear. Refer to information at About Latest Weather Observations and please check the disclaimer before using these data.